createdAt,value
2018-08-24T00:00:57.020Z,0.70
2018-08-24T00:01:56.991Z,0.90
2018-08-24T00:02:56.972Z,0.70
2018-08-24T00:03:56.948Z,0.80
2018-08-24T00:04:56.949Z,0.50
2018-08-24T00:05:56.892Z,0.60
2018-08-24T00:06:56.879Z,0.80
2018-08-24T00:07:56.847Z,0.70
2018-08-24T00:08:56.830Z,0.70
2018-08-24T00:09:56.802Z,0.70
2018-08-24T00:10:56.780Z,0.70
2018-08-24T00:11:56.760Z,0.70
2018-08-24T00:12:56.733Z,0.70
2018-08-24T00:13:57.988Z,0.70
2018-08-24T00:14:56.684Z,0.70
2018-08-24T00:15:56.656Z,0.70
2018-08-24T00:16:56.634Z,0.60
2018-08-24T00:17:56.613Z,0.70
2018-08-24T00:18:56.587Z,0.80
2018-08-24T00:19:56.569Z,0.60
2018-08-24T00:20:56.539Z,0.70
2018-08-24T00:21:56.523Z,0.70
2018-08-24T00:22:56.499Z,0.70
2018-08-24T00:23:56.471Z,0.80
2018-08-24T00:24:56.441Z,0.60
2018-08-24T00:25:56.421Z,0.60
2018-08-24T00:26:56.401Z,0.70
2018-08-24T00:27:56.367Z,0.60
2018-08-24T00:28:56.351Z,0.60
2018-08-24T00:29:56.329Z,0.60
2018-08-24T00:30:56.296Z,0.70
2018-08-24T00:31:56.273Z,0.80
2018-08-24T00:32:56.247Z,0.60
2018-08-24T00:33:56.230Z,0.60
2018-08-24T00:34:56.200Z,0.60
2018-08-24T00:35:56.180Z,0.60
2018-08-24T00:36:56.159Z,0.60
2018-08-24T00:37:56.129Z,0.70
2018-08-24T00:38:56.109Z,0.60
2018-08-24T00:39:56.083Z,0.60
2018-08-24T00:40:56.057Z,0.70
2018-08-24T00:41:56.036Z,0.60
2018-08-24T00:42:56.012Z,0.70
2018-08-24T00:43:55.988Z,0.70
2018-08-24T00:44:55.972Z,0.70
2018-08-24T00:45:55.938Z,0.60
2018-08-24T00:46:55.911Z,0.90
2018-08-24T00:47:55.890Z,0.70
2018-08-24T00:48:55.867Z,0.70
2018-08-24T00:49:55.834Z,0.60
2018-08-24T00:50:55.825Z,0.80
2018-08-24T00:51:55.793Z,0.80
2018-08-24T00:52:55.765Z,0.60
2018-08-24T00:53:55.751Z,0.70
2018-08-24T00:54:55.719Z,0.80
2018-08-24T00:55:55.695Z,0.80
2018-08-24T00:56:55.671Z,0.80
2018-08-24T00:57:55.646Z,0.70
2018-08-24T00:58:55.623Z,0.80
2018-08-24T00:59:55.600Z,0.60
2018-08-24T01:00:55.573Z,0.80
2018-08-24T01:01:55.554Z,0.90
2018-08-24T01:02:55.530Z,0.90
2018-08-24T01:03:55.500Z,0.80
2018-08-24T01:04:55.473Z,0.90
2018-08-24T01:05:55.458Z,0.80
2018-08-24T01:06:55.430Z,0.90
2018-08-24T01:07:55.405Z,0.90
2018-08-24T01:08:55.383Z,0.90
2018-08-24T01:09:55.353Z,0.90
2018-08-24T01:10:55.344Z,0.90
2018-08-24T01:11:55.307Z,1.00
2018-08-24T01:12:55.289Z,0.90
2018-08-24T01:13:55.260Z,0.90
2018-08-24T01:14:55.235Z,1.00
2018-08-24T01:15:55.217Z,1.20
2018-08-24T01:16:55.186Z,1.10
2018-08-24T01:17:55.167Z,1.30
2018-08-24T01:18:55.139Z,1.10
2018-08-24T01:19:55.126Z,0.90
2018-08-24T01:20:55.090Z,1.00
2018-08-24T01:21:55.062Z,1.20
2018-08-24T01:22:55.047Z,8.00
2018-08-24T01:23:55.017Z,3.10
2018-08-24T01:24:54.998Z,1.70
2018-08-24T01:25:54.968Z,4.80
2018-08-24T01:26:54.952Z,6.20
2018-08-24T01:27:54.921Z,3.00
2018-08-24T01:28:54.904Z,3.80
2018-08-24T01:29:54.877Z,3.90
2018-08-24T01:30:54.854Z,3.60
2018-08-24T01:31:54.825Z,1.60
2018-08-24T01:32:54.804Z,2.70
2018-08-24T01:33:54.780Z,3.20
2018-08-24T01:34:54.748Z,1.90
2018-08-24T01:35:54.729Z,1.50
2018-08-24T01:36:54.700Z,3.10
2018-08-24T01:37:54.689Z,1.50
2018-08-24T01:38:54.654Z,2.80
2018-08-24T01:39:54.635Z,3.70
2018-08-24T01:40:54.602Z,4.30
2018-08-24T01:41:54.579Z,3.40
2018-08-24T01:42:54.564Z,13.20
2018-08-24T01:43:54.532Z,6.30
2018-08-24T01:44:54.516Z,1.90
2018-08-24T01:45:54.489Z,2.10
2018-08-24T01:46:54.462Z,7.50
2018-08-24T01:47:54.442Z,8.90
2018-08-24T01:48:54.408Z,10.40
2018-08-24T01:49:54.390Z,6.60
2018-08-24T01:50:54.363Z,5.90
2018-08-24T01:51:54.343Z,5.40
2018-08-24T01:52:54.323Z,14.50
2018-08-24T01:53:54.291Z,10.40
2018-08-24T01:54:54.264Z,7.40
2018-08-24T01:55:54.241Z,7.90
2018-08-24T01:56:54.740Z,6.80
2018-08-24T01:57:54.192Z,6.80
2018-08-24T01:58:54.210Z,6.40
2018-08-24T01:59:54.148Z,5.00
2018-08-24T02:00:54.124Z,2.60
2018-08-24T02:01:54.097Z,4.20
2018-08-24T02:02:54.072Z,4.80
2018-08-24T02:03:54.051Z,3.50
2018-08-24T02:04:54.021Z,5.40
2018-08-24T02:05:54.003Z,3.40
2018-08-24T02:06:53.972Z,3.20
2018-08-24T02:07:53.955Z,3.10
2018-08-24T02:08:53.921Z,1.90
2018-08-24T02:09:53.906Z,4.00
2018-08-24T02:10:53.876Z,4.00
2018-08-24T02:11:53.852Z,3.70
2018-08-24T02:12:53.832Z,5.10
2018-08-24T02:13:53.808Z,6.30
2018-08-24T02:14:53.782Z,6.00
2018-08-24T02:15:53.756Z,8.90
2018-08-24T02:16:53.737Z,8.40
2018-08-24T02:17:53.706Z,4.30
2018-08-24T02:18:53.686Z,5.90
2018-08-24T02:19:53.659Z,6.10
2018-08-24T02:20:53.636Z,5.20
2018-08-24T02:21:53.606Z,5.40
2018-08-24T02:22:53.590Z,4.60
2018-08-24T02:23:53.561Z,4.20
2018-08-24T02:24:53.543Z,5.30
2018-08-24T02:25:53.515Z,4.00
2018-08-24T02:26:53.488Z,2.50
2018-08-24T02:27:53.467Z,3.00
2018-08-24T02:28:53.441Z,3.40
2018-08-24T02:29:53.421Z,2.80
2018-08-24T02:30:53.390Z,3.00
2018-08-24T02:31:53.374Z,2.30
2018-08-24T02:32:53.344Z,2.00
2018-08-24T02:33:53.321Z,2.50
2018-08-24T02:34:53.296Z,1.90
2018-08-24T02:35:53.269Z,2.50
2018-08-24T02:36:53.252Z,1.90
2018-08-24T02:37:53.229Z,1.90
2018-08-24T02:38:53.196Z,1.90
2018-08-24T02:39:53.179Z,2.10
2018-08-24T02:40:53.151Z,2.00
2018-08-24T02:41:53.123Z,2.20
2018-08-24T02:42:53.103Z,1.90
2018-08-24T02:43:53.098Z,2.30
2018-08-24T02:44:53.059Z,2.10
2018-08-24T02:45:53.032Z,1.40
2018-08-24T02:46:53.003Z,1.90
2018-08-24T02:47:52.975Z,1.70
2018-08-24T02:48:52.960Z,1.70
2018-08-24T02:49:52.930Z,1.70
2018-08-24T02:50:52.904Z,2.20
2018-08-24T02:51:52.880Z,2.10
2018-08-24T02:52:52.862Z,1.90
2018-08-24T02:53:52.838Z,1.70
2018-08-24T02:54:52.807Z,1.80
2018-08-24T02:55:52.784Z,1.60
2018-08-24T02:56:52.764Z,1.70
2018-08-24T02:57:52.739Z,1.70
2018-08-24T02:58:52.711Z,1.70
2018-08-24T02:59:52.685Z,1.80
2018-08-24T03:00:52.667Z,1.80
2018-08-24T03:01:52.635Z,1.90
2018-08-24T03:02:52.618Z,1.80
2018-08-24T03:03:52.593Z,1.90
2018-08-24T03:04:52.564Z,1.60
2018-08-24T03:05:52.543Z,1.60
2018-08-24T03:06:52.513Z,1.30
2018-08-24T03:07:52.492Z,1.90
2018-08-24T03:08:52.463Z,1.70
2018-08-24T03:09:52.446Z,1.70
2018-08-24T03:10:52.414Z,1.60
2018-08-24T03:11:52.396Z,1.50
2018-08-24T03:12:52.370Z,1.60
2018-08-24T03:13:52.347Z,1.70
2018-08-24T03:14:52.318Z,1.80
2018-08-24T03:15:52.300Z,1.60
2018-08-24T03:16:52.267Z,1.90
2018-08-24T03:17:52.246Z,1.80
2018-08-24T03:18:52.226Z,1.80
2018-08-24T03:19:52.200Z,1.80
2018-08-24T03:20:52.171Z,1.70
2018-08-24T03:21:52.146Z,1.50
2018-08-24T03:22:52.127Z,1.60
2018-08-24T03:23:52.105Z,1.90
2018-08-24T03:24:52.077Z,1.60
2018-08-24T03:25:52.050Z,1.50
2018-08-24T03:26:52.029Z,2.00
2018-08-24T03:27:52.002Z,1.90
2018-08-24T03:28:51.980Z,2.20
2018-08-24T03:29:51.949Z,1.80
2018-08-24T03:30:51.932Z,2.00
2018-08-24T03:31:51.901Z,1.60
2018-08-24T03:32:51.884Z,1.90
2018-08-24T03:33:51.857Z,2.00
2018-08-24T03:34:51.833Z,1.80
2018-08-24T03:35:51.807Z,1.90
2018-08-24T03:36:51.783Z,2.00
2018-08-24T03:37:51.760Z,1.80
2018-08-24T03:38:51.732Z,2.10
2018-08-24T03:39:51.711Z,1.80
2018-08-24T03:40:51.687Z,1.90
2018-08-24T03:41:51.663Z,1.90
2018-08-24T03:42:51.636Z,1.80
2018-08-24T03:43:51.608Z,1.80
2018-08-24T03:44:51.586Z,1.90
2018-08-24T03:45:51.621Z,2.20
2018-08-24T03:46:51.537Z,1.80
2018-08-24T03:47:51.515Z,1.90
2018-08-24T03:48:51.485Z,2.10
2018-08-24T03:49:51.468Z,1.80
2018-08-24T03:50:51.438Z,2.10
2018-08-24T03:51:51.413Z,2.10
2018-08-24T03:52:51.421Z,2.00
2018-08-24T03:53:51.365Z,2.00
2018-08-24T03:54:51.337Z,2.00
2018-08-24T03:55:51.315Z,1.80
2018-08-24T03:56:51.293Z,2.00
2018-08-24T03:57:51.267Z,2.10
2018-08-24T03:58:51.239Z,1.90
2018-08-24T03:59:51.213Z,1.80
2018-08-24T04:00:51.200Z,2.00
2018-08-24T04:01:51.166Z,1.80
2018-08-24T04:02:51.147Z,1.70
2018-08-24T04:03:51.121Z,2.30
2018-08-24T04:04:51.097Z,1.80
2018-08-24T04:05:51.073Z,1.90
2018-08-24T04:06:51.042Z,1.90
2018-08-24T04:07:51.021Z,1.90
2018-08-24T04:08:50.996Z,2.00
2018-08-24T04:09:50.975Z,2.10
2018-08-24T04:10:50.943Z,1.90
2018-08-24T04:11:50.925Z,2.20
2018-08-24T04:12:50.950Z,1.80
2018-08-24T04:13:50.870Z,2.00
2018-08-24T04:14:50.856Z,1.90
2018-08-24T04:15:50.822Z,1.80
2018-08-24T04:16:50.801Z,1.90
2018-08-24T04:17:50.780Z,1.80
2018-08-24T04:18:50.748Z,1.80
2018-08-24T04:19:50.742Z,1.80
2018-08-24T04:20:50.709Z,2.00
2018-08-24T04:21:50.678Z,1.80
2018-08-24T04:22:50.651Z,2.00
2018-08-24T04:23:50.630Z,2.00
2018-08-24T04:24:50.605Z,1.90
2018-08-24T04:25:50.732Z,1.80
2018-08-24T04:26:50.552Z,2.10
2018-08-24T04:27:50.527Z,2.30
2018-08-24T04:28:50.512Z,1.80
2018-08-24T04:29:50.479Z,2.00
2018-08-24T04:30:50.458Z,2.20
2018-08-24T04:31:50.437Z,2.10
2018-08-24T04:32:50.419Z,2.10
2018-08-24T04:33:50.387Z,2.40
2018-08-24T04:34:50.413Z,2.10
2018-08-24T04:35:50.334Z,2.30
2018-08-24T04:36:50.309Z,2.40
2018-08-24T04:37:50.280Z,2.30
2018-08-24T04:38:50.278Z,2.30
2018-08-24T04:39:50.235Z,2.10
2018-08-24T04:40:50.207Z,2.70
2018-08-24T04:41:50.183Z,2.30
2018-08-24T04:42:50.163Z,2.40
2018-08-24T04:43:50.135Z,2.60
2018-08-24T04:44:50.112Z,3.00
2018-08-24T04:45:50.091Z,2.50
2018-08-24T04:46:50.065Z,2.70
2018-08-24T04:47:50.036Z,2.60
2018-08-24T04:48:50.017Z,3.20
2018-08-24T04:49:49.989Z,3.30
2018-08-24T04:50:49.984Z,3.10
2018-08-24T04:51:49.937Z,2.90
2018-08-24T04:52:49.912Z,3.30
2018-08-24T04:53:49.896Z,2.70
2018-08-24T04:54:49.863Z,2.90
2018-08-24T04:55:49.838Z,3.00
2018-08-24T04:56:49.817Z,3.70
2018-08-24T04:57:49.791Z,3.50
2018-08-24T04:58:49.773Z,3.40
2018-08-24T04:59:49.747Z,3.90
2018-08-24T05:00:49.733Z,3.70
2018-08-24T05:01:49.701Z,3.60
2018-08-24T05:02:49.677Z,3.90
2018-08-24T05:03:49.642Z,3.60
2018-08-24T05:04:49.621Z,4.30
2018-08-24T05:05:49.643Z,3.70
2018-08-24T05:06:49.571Z,3.80
2018-08-24T05:07:49.551Z,4.20
2018-08-24T05:08:49.569Z,4.30
2018-08-24T05:09:49.500Z,4.20
2018-08-24T05:10:49.473Z,4.10
2018-08-24T05:11:49.444Z,3.90
2018-08-24T05:12:49.420Z,4.20
2018-08-24T05:13:49.404Z,4.00
2018-08-24T05:14:49.372Z,4.10
2018-08-24T05:15:49.348Z,4.70
2018-08-24T05:16:49.327Z,4.30
2018-08-24T05:17:49.299Z,4.30
2018-08-24T05:18:49.280Z,4.00
2018-08-24T05:19:49.255Z,4.10
2018-08-24T05:20:49.226Z,4.90
2018-08-24T05:21:49.208Z,5.00
2018-08-24T05:22:49.177Z,4.80
2018-08-24T05:23:49.157Z,4.50
2018-08-24T05:24:49.169Z,4.30
2018-08-24T05:25:49.104Z,5.20
2018-08-24T05:26:49.075Z,4.60
2018-08-24T05:27:49.059Z,4.90
2018-08-24T05:28:49.033Z,5.40
2018-08-24T05:29:49.005Z,5.20
2018-08-24T05:30:48.987Z,4.90
2018-08-24T05:31:48.965Z,5.00
2018-08-24T05:32:48.932Z,4.90
2018-08-24T05:33:48.993Z,5.10
2018-08-24T05:34:48.883Z,5.30
2018-08-24T05:35:48.864Z,5.40
2018-08-24T05:36:48.841Z,5.00
2018-08-24T05:37:48.815Z,5.20
2018-08-24T05:38:48.782Z,4.90
2018-08-24T05:39:48.761Z,5.10
2018-08-24T05:40:48.737Z,5.60
2018-08-24T05:41:48.713Z,6.00
2018-08-24T05:42:48.689Z,6.40
2018-08-24T05:43:48.668Z,5.70
2018-08-24T05:44:48.646Z,5.90
2018-08-24T05:45:48.615Z,5.30
2018-08-24T05:46:48.595Z,6.70
2018-08-24T05:47:48.565Z,5.90
2018-08-24T05:48:48.591Z,6.20
2018-08-24T05:49:48.520Z,5.60
2018-08-24T05:50:48.500Z,7.10
2018-08-24T05:51:48.466Z,6.40
2018-08-24T05:52:48.450Z,6.50
2018-08-24T05:53:48.418Z,6.50
2018-08-24T05:54:48.395Z,7.10
2018-08-24T05:55:48.438Z,6.90
2018-08-24T05:56:48.406Z,7.10
2018-08-24T05:57:48.329Z,7.40
2018-08-24T05:58:48.298Z,7.60
2018-08-24T05:59:48.274Z,7.40
2018-08-24T06:00:48.262Z,7.40
2018-08-24T06:01:48.227Z,7.90
2018-08-24T06:02:48.202Z,7.50
2018-08-24T06:03:48.179Z,8.00
2018-08-24T06:04:48.155Z,7.80
2018-08-24T06:05:48.174Z,7.30
2018-08-24T06:06:48.105Z,8.00
2018-08-24T06:07:48.085Z,7.20
2018-08-24T06:08:48.050Z,8.20
2018-08-24T06:09:48.030Z,7.40
2018-08-24T06:10:48.032Z,7.30
2018-08-24T06:11:47.980Z,7.00
2018-08-24T06:12:47.955Z,7.30
2018-08-24T06:13:47.934Z,8.20
2018-08-24T06:14:47.912Z,7.80
2018-08-24T06:15:47.914Z,7.10
2018-08-24T06:16:47.920Z,14.60
2018-08-24T06:17:47.836Z,9.00
2018-08-24T06:18:47.818Z,13.40
2018-08-24T06:19:47.802Z,23.60
2018-08-24T06:20:47.765Z,18.60
2018-08-24T06:21:47.745Z,15.30
2018-08-24T06:22:47.714Z,12.30
2018-08-24T06:23:47.690Z,13.20
2018-08-24T06:24:47.672Z,14.60
2018-08-24T06:25:47.639Z,12.50
2018-08-24T06:26:47.623Z,19.10
2018-08-24T06:27:47.597Z,9.30
2018-08-24T06:28:47.576Z,23.30
2018-08-24T06:29:47.577Z,21.60
2018-08-24T06:30:47.576Z,16.10
2018-08-24T06:31:47.498Z,12.70
2018-08-24T06:32:47.546Z,18.10
2018-08-24T06:33:47.446Z,10.30
2018-08-24T06:34:47.429Z,15.60
2018-08-24T06:35:47.403Z,18.30
2018-08-24T06:36:47.386Z,17.50
2018-08-24T06:37:47.361Z,12.90
2018-08-24T06:38:47.327Z,17.50
2018-08-24T06:39:47.304Z,17.90
2018-08-24T06:40:47.280Z,16.40
2018-08-24T06:41:47.266Z,17.50
2018-08-24T06:42:47.232Z,18.10
2018-08-24T06:43:47.210Z,23.80
2018-08-24T06:44:47.184Z,17.80
2018-08-24T06:45:47.159Z,16.60
2018-08-24T06:46:47.143Z,24.30
2018-08-24T06:47:47.173Z,25.60
2018-08-24T06:48:47.090Z,17.10
2018-08-24T06:49:47.089Z,11.90
2018-08-24T06:50:47.035Z,9.40
2018-08-24T06:51:47.020Z,10.00
2018-08-24T06:52:46.983Z,11.40
2018-08-24T06:53:47.015Z,9.60
2018-08-24T06:54:46.941Z,9.90
2018-08-24T06:55:46.916Z,9.60
2018-08-24T06:56:46.889Z,12.80
2018-08-24T06:57:46.868Z,14.60
2018-08-24T06:58:46.841Z,15.00
2018-08-24T06:59:47.863Z,10.90
2018-08-24T07:00:46.792Z,11.20
2018-08-24T07:01:46.772Z,13.10
2018-08-24T07:02:46.743Z,15.60
2018-08-24T07:03:46.724Z,10.40
2018-08-24T07:04:46.705Z,11.80
2018-08-24T07:05:46.718Z,12.20
2018-08-24T07:06:46.657Z,14.20
2018-08-24T07:07:46.623Z,30.30
2018-08-24T07:08:46.604Z,14.50
2018-08-24T07:09:46.575Z,15.60
2018-08-24T07:10:46.557Z,11.50
2018-08-24T07:11:46.541Z,10.70
2018-08-24T07:12:46.547Z,13.10
2018-08-24T07:13:46.477Z,9.40
2018-08-24T07:14:46.457Z,10.30
2018-08-24T07:15:46.431Z,11.40
2018-08-24T07:16:46.407Z,10.40
2018-08-24T07:17:46.381Z,7.90
2018-08-24T07:18:46.365Z,9.90
2018-08-24T07:19:46.330Z,10.40
2018-08-24T07:20:46.312Z,10.10
2018-08-24T07:21:46.283Z,10.60
2018-08-24T07:22:46.262Z,9.10
2018-08-24T07:23:46.241Z,9.80
2018-08-24T07:24:46.209Z,8.60
2018-08-24T07:25:46.188Z,10.30
2018-08-24T07:26:46.160Z,9.00
2018-08-24T07:27:46.138Z,11.30
2018-08-24T07:28:46.116Z,12.10
2018-08-24T07:29:46.089Z,11.30
2018-08-24T07:30:46.070Z,19.40
2018-08-24T07:31:46.043Z,24.90
2018-08-24T07:32:46.021Z,11.20
2018-08-24T07:33:45.996Z,11.20
2018-08-24T07:34:45.971Z,10.50
2018-08-24T07:35:45.943Z,11.00
2018-08-24T07:36:45.920Z,10.00
2018-08-24T07:37:45.903Z,10.10
2018-08-24T07:38:45.877Z,8.60
2018-08-24T07:39:45.843Z,8.70
2018-08-24T07:40:45.826Z,9.70
2018-08-24T07:41:45.847Z,17.50
2018-08-24T07:42:45.775Z,15.10
2018-08-24T07:43:45.754Z,15.60
2018-08-24T07:44:45.722Z,12.70
2018-08-24T07:45:45.700Z,11.70
2018-08-24T07:46:45.677Z,13.80
2018-08-24T07:47:45.660Z,13.20
2018-08-24T07:48:45.628Z,11.40
2018-08-24T07:49:45.605Z,13.20
2018-08-24T07:50:45.598Z,8.30
2018-08-24T07:51:45.556Z,11.30
2018-08-24T07:52:45.534Z,9.30
2018-08-24T07:53:45.513Z,8.70
2018-08-24T07:54:45.483Z,9.30
2018-08-24T07:55:45.455Z,25.60
2018-08-24T07:56:45.434Z,26.00
2018-08-24T07:57:45.416Z,15.30
2018-08-24T07:58:45.384Z,8.40
2018-08-24T07:59:45.355Z,9.10
2018-08-24T08:00:45.353Z,8.40
2018-08-24T08:01:45.315Z,12.70
2018-08-24T08:02:45.288Z,8.10
2018-08-24T08:03:45.269Z,8.00
2018-08-24T08:04:45.236Z,7.50
2018-08-24T08:05:45.217Z,7.80
2018-08-24T08:06:45.190Z,7.20
2018-08-24T08:07:45.188Z,7.40
2018-08-24T08:08:45.147Z,7.00
2018-08-24T08:09:45.116Z,6.70
2018-08-24T08:10:45.121Z,6.50
2018-08-24T08:11:45.096Z,6.30
2018-08-24T08:12:45.081Z,6.30
2018-08-24T08:13:45.026Z,5.70
2018-08-24T08:14:44.993Z,5.00
2018-08-24T08:15:44.977Z,4.50
2018-08-24T08:16:44.944Z,4.80
2018-08-24T08:17:44.923Z,5.20
2018-08-24T08:18:44.898Z,4.30
2018-08-24T08:19:44.869Z,4.50
2018-08-24T08:20:44.853Z,4.40
2018-08-24T08:21:44.820Z,3.90
2018-08-24T08:22:44.803Z,3.60
2018-08-24T08:23:44.769Z,3.90
2018-08-24T08:24:44.764Z,3.60
2018-08-24T08:25:44.722Z,3.50
2018-08-24T08:26:44.708Z,3.70
2018-08-24T08:27:44.673Z,3.60
2018-08-24T08:28:44.654Z,3.50
2018-08-24T08:29:44.626Z,3.30
2018-08-24T08:30:44.604Z,2.90
2018-08-24T08:31:44.575Z,3.30
2018-08-24T08:32:44.553Z,3.40
2018-08-24T08:33:44.531Z,2.80
2018-08-24T08:34:44.505Z,2.80
2018-08-24T08:35:44.478Z,2.90
2018-08-24T08:36:44.454Z,2.30
2018-08-24T08:37:44.430Z,2.70
2018-08-24T08:38:44.404Z,2.30
2018-08-24T08:39:44.377Z,2.30
2018-08-24T08:40:44.363Z,2.00
2018-08-24T08:41:44.336Z,2.20
2018-08-24T08:42:44.304Z,2.40
2018-08-24T08:43:44.284Z,2.20
2018-08-24T08:44:44.253Z,2.50
2018-08-24T08:45:44.236Z,2.10
2018-08-24T08:46:44.210Z,2.00
2018-08-24T08:47:44.184Z,2.10
2018-08-24T08:48:44.155Z,2.50
2018-08-24T08:49:44.129Z,2.30
2018-08-24T08:50:44.120Z,1.90
2018-08-24T08:51:44.083Z,1.60
2018-08-24T08:52:44.057Z,1.90
2018-08-24T08:53:44.035Z,1.50
2018-08-24T08:54:44.006Z,2.10
2018-08-24T08:55:43.983Z,1.90
2018-08-24T08:56:43.964Z,1.70
2018-08-24T08:57:43.939Z,1.70
2018-08-24T08:58:43.908Z,2.10
2018-08-24T08:59:43.890Z,1.80
2018-08-24T09:00:43.869Z,2.10
2018-08-24T09:01:43.839Z,1.50
2018-08-24T09:02:43.813Z,2.20
2018-08-24T09:03:43.795Z,1.90
2018-08-24T09:04:43.764Z,2.60
2018-08-24T09:05:43.741Z,2.10
2018-08-24T09:06:43.711Z,2.30
2018-08-24T09:07:43.693Z,2.10
2018-08-24T09:08:43.668Z,1.60
2018-08-24T09:09:43.637Z,1.90
2018-08-24T09:10:43.613Z,1.70
2018-08-24T09:11:43.589Z,2.20
2018-08-24T09:12:43.570Z,1.80
2018-08-24T09:13:43.541Z,1.70
2018-08-24T09:14:43.522Z,1.70
2018-08-24T09:15:43.503Z,2.20
2018-08-24T09:16:43.496Z,2.60
2018-08-24T09:17:43.444Z,3.00
2018-08-24T09:18:43.420Z,3.00
2018-08-24T09:19:43.396Z,2.10
2018-08-24T09:20:43.373Z,2.50
2018-08-24T09:21:43.351Z,2.50
2018-08-24T09:22:43.328Z,1.60
2018-08-24T09:23:43.314Z,2.30
2018-08-24T09:24:43.274Z,2.80
2018-08-24T09:25:43.308Z,4.40
2018-08-24T09:26:43.224Z,6.80
2018-08-24T09:27:43.208Z,5.60
2018-08-24T09:28:43.168Z,4.40
2018-08-24T09:29:43.148Z,2.50
2018-08-24T09:30:43.128Z,2.60
2018-08-24T09:31:43.098Z,2.30
2018-08-24T09:32:43.226Z,1.70
2018-08-24T09:33:43.051Z,2.80
2018-08-24T09:34:43.033Z,8.10
2018-08-24T09:35:43.012Z,6.30
2018-08-24T09:36:42.979Z,4.20
2018-08-24T09:37:42.956Z,1.70
2018-08-24T09:38:42.936Z,2.10
2018-08-24T09:39:42.909Z,2.10
2018-08-24T09:40:42.879Z,2.60
2018-08-24T09:41:42.857Z,1.60
2018-08-24T09:42:42.832Z,2.50
2018-08-24T09:43:42.808Z,2.50
2018-08-24T09:44:42.791Z,1.40
2018-08-24T09:45:42.761Z,2.80
2018-08-24T09:46:42.760Z,2.30
2018-08-24T09:47:42.712Z,2.60
2018-08-24T09:48:42.688Z,2.20
2018-08-24T09:49:42.661Z,2.40
2018-08-24T09:50:42.644Z,1.70
2018-08-24T09:51:42.615Z,1.70
2018-08-24T09:52:42.594Z,1.70
2018-08-24T09:53:42.564Z,1.60
2018-08-24T09:54:42.549Z,1.60
2018-08-24T09:55:42.516Z,1.70
2018-08-24T09:56:42.506Z,1.50
2018-08-24T09:57:42.470Z,2.40
2018-08-24T09:58:42.443Z,1.70
2018-08-24T09:59:42.430Z,2.50
2018-08-24T10:00:42.399Z,1.60
2018-08-24T10:01:42.379Z,1.80
2018-08-24T10:02:42.364Z,1.90
2018-08-24T10:03:42.326Z,1.90
2018-08-24T10:04:42.328Z,3.80
2018-08-24T10:05:42.273Z,1.90
2018-08-24T10:06:42.268Z,1.90
2018-08-24T10:07:42.226Z,1.80
2018-08-24T10:08:42.202Z,2.30
2018-08-24T10:09:42.221Z,1.90
2018-08-24T10:10:42.161Z,2.70
2018-08-24T10:11:42.134Z,1.30
2018-08-24T10:12:42.109Z,1.40
2018-08-24T10:13:42.083Z,1.70
2018-08-24T10:14:42.060Z,1.40
2018-08-24T10:15:42.029Z,2.20
2018-08-24T10:16:42.013Z,3.00
2018-08-24T10:17:41.988Z,1.80
2018-08-24T10:18:41.956Z,1.80
2018-08-24T10:19:41.932Z,1.80
2018-08-24T10:20:41.912Z,1.40
2018-08-24T10:21:41.882Z,1.40
2018-08-24T10:22:41.868Z,1.60
2018-08-24T10:23:41.848Z,1.50
2018-08-24T10:24:41.822Z,1.30
2018-08-24T10:25:41.792Z,1.30
2018-08-24T10:26:41.770Z,1.50
2018-08-24T10:27:41.744Z,1.80
2018-08-24T10:28:41.717Z,1.20
2018-08-24T10:29:41.759Z,1.30
2018-08-24T10:30:41.666Z,1.40
2018-08-24T10:31:41.648Z,1.20
2018-08-24T10:32:41.620Z,1.50
2018-08-24T10:33:41.647Z,1.70
2018-08-24T10:34:41.581Z,1.80
2018-08-24T10:35:41.542Z,1.10
2018-08-24T10:36:41.526Z,1.20
2018-08-24T10:37:41.502Z,1.20
2018-08-24T10:38:41.475Z,0.90
2018-08-24T10:39:41.448Z,1.30
2018-08-24T10:40:41.483Z,1.20
2018-08-24T10:41:41.404Z,1.00
2018-08-24T10:42:41.374Z,1.20
2018-08-24T10:43:41.357Z,1.60
2018-08-24T10:44:41.326Z,1.20
2018-08-24T10:45:41.307Z,1.10
2018-08-24T10:46:41.278Z,1.00
2018-08-24T10:47:41.267Z,1.20
2018-08-24T10:48:41.229Z,1.20
2018-08-24T10:49:41.211Z,1.10
2018-08-24T10:50:41.182Z,1.20
2018-08-24T10:51:41.167Z,1.10
2018-08-24T10:52:41.132Z,1.40
2018-08-24T10:53:41.111Z,1.20
2018-08-24T10:54:41.093Z,1.00
2018-08-24T10:55:41.085Z,1.20
2018-08-24T10:56:41.038Z,1.00
2018-08-24T10:57:41.014Z,1.20
2018-08-24T10:58:40.997Z,1.10
2018-08-24T10:59:40.988Z,1.10
2018-08-24T11:00:40.950Z,0.70
2018-08-24T11:01:40.920Z,1.00
2018-08-24T11:02:40.897Z,1.40
2018-08-24T11:03:40.874Z,0.80
2018-08-24T11:04:40.852Z,0.90
2018-08-24T11:05:40.842Z,0.90
2018-08-24T11:06:40.805Z,1.10
2018-08-24T11:07:40.853Z,0.90
2018-08-24T11:08:40.752Z,2.00
2018-08-24T11:09:40.740Z,4.80
2018-08-24T11:10:40.706Z,2.70
2018-08-24T11:11:40.683Z,2.20
2018-08-24T11:12:40.661Z,4.80
2018-08-24T11:13:40.635Z,2.30
2018-08-24T11:14:40.607Z,1.20
2018-08-24T11:15:40.595Z,1.60
2018-08-24T11:16:40.586Z,0.80
2018-08-24T11:17:40.543Z,2.40
2018-08-24T11:18:40.525Z,3.10
2018-08-24T11:19:40.495Z,1.30
2018-08-24T11:20:40.476Z,1.80
2018-08-24T11:21:40.453Z,1.20
2018-08-24T11:22:40.423Z,1.00
2018-08-24T11:23:40.403Z,1.70
2018-08-24T11:24:40.385Z,1.90
2018-08-24T11:25:40.354Z,1.10
2018-08-24T11:26:40.344Z,0.80
2018-08-24T11:27:40.314Z,0.90
2018-08-24T11:28:40.375Z,0.50
2018-08-24T11:29:40.265Z,1.00
2018-08-24T11:30:40.237Z,1.10
2018-08-24T11:31:40.218Z,1.30
2018-08-24T11:32:40.196Z,1.50
2018-08-24T11:33:40.172Z,1.20
2018-08-24T11:34:40.142Z,1.00
2018-08-24T11:35:40.120Z,1.90
2018-08-24T11:36:40.099Z,0.90
2018-08-24T11:37:40.075Z,1.00
2018-08-24T11:38:40.052Z,1.00
2018-08-24T11:39:40.029Z,1.00
2018-08-24T11:40:40.004Z,0.80
2018-08-24T11:41:40.036Z,1.10
2018-08-24T11:42:39.954Z,1.00
2018-08-24T11:43:39.935Z,1.30
2018-08-24T11:44:39.955Z,1.50
2018-08-24T11:45:39.888Z,1.10
2018-08-24T11:46:39.860Z,1.10
2018-08-24T11:47:39.847Z,0.90
2018-08-24T11:48:39.809Z,1.10
2018-08-24T11:49:39.791Z,1.30
2018-08-24T11:50:39.764Z,1.10
2018-08-24T11:51:39.742Z,0.80
2018-08-24T11:52:39.716Z,1.00
2018-08-24T11:53:39.691Z,1.40
2018-08-24T11:54:39.673Z,1.10
2018-08-24T11:55:39.644Z,0.90
2018-08-24T11:56:39.622Z,0.70
2018-08-24T11:57:39.597Z,1.30
2018-08-24T11:58:39.579Z,1.00
2018-08-24T11:59:39.559Z,0.90
2018-08-24T12:00:39.531Z,0.80
2018-08-24T12:01:39.501Z,1.20
2018-08-24T12:02:39.483Z,1.00
2018-08-24T12:03:39.453Z,3.60
2018-08-24T12:04:39.438Z,2.30
2018-08-24T12:05:39.406Z,6.70
2018-08-24T12:06:39.389Z,8.40
2018-08-24T12:07:39.360Z,0.80
2018-08-24T12:08:39.348Z,2.40
2018-08-24T12:09:39.310Z,1.80
2018-08-24T12:10:39.295Z,2.70
2018-08-24T12:11:39.268Z,2.70
2018-08-24T12:12:39.321Z,3.50
2018-08-24T12:13:39.255Z,2.70
2018-08-24T12:14:39.192Z,3.40
2018-08-24T12:15:39.169Z,2.60
2018-08-24T12:16:39.150Z,1.10
2018-08-24T12:17:39.123Z,1.20
2018-08-24T12:18:39.098Z,2.10
2018-08-24T12:19:39.082Z,1.40
2018-08-24T12:20:39.058Z,2.40
2018-08-24T12:21:39.102Z,0.80
2018-08-24T12:22:39.005Z,0.90
2018-08-24T12:23:38.978Z,1.30
2018-08-24T12:24:38.962Z,2.90
2018-08-24T12:25:38.933Z,1.30
2018-08-24T12:26:38.913Z,1.60
2018-08-24T12:27:38.892Z,2.00
2018-08-24T12:28:38.862Z,2.20
2018-08-24T12:29:38.841Z,2.10
2018-08-24T12:30:38.825Z,1.30
2018-08-24T12:31:38.799Z,1.60
2018-08-24T12:32:38.786Z,1.40
2018-08-24T12:33:38.775Z,1.00
2018-08-24T12:34:38.739Z,1.30
2018-08-24T12:35:38.697Z,1.50
2018-08-24T12:36:38.679Z,1.10
2018-08-24T12:37:38.656Z,1.10
2018-08-24T12:38:38.626Z,0.80
2018-08-24T12:39:38.604Z,0.90
2018-08-24T12:40:38.582Z,1.00
2018-08-24T12:41:38.565Z,0.70
2018-08-24T12:42:38.531Z,0.90
2018-08-24T12:43:38.601Z,1.00
2018-08-24T12:44:38.488Z,1.00
2018-08-24T12:45:38.464Z,1.10
2018-08-24T12:46:38.443Z,0.90
2018-08-24T12:47:38.419Z,1.10
2018-08-24T12:48:38.394Z,0.90
2018-08-24T12:49:38.367Z,0.80
2018-08-24T12:50:38.348Z,1.00
2018-08-24T12:51:38.323Z,1.00
2018-08-24T12:52:38.300Z,0.80
2018-08-24T12:53:38.276Z,0.80
2018-08-24T12:54:38.255Z,0.60
2018-08-24T12:55:38.230Z,0.60
2018-08-24T12:56:38.938Z,0.70
2018-08-24T12:57:38.182Z,0.70
2018-08-24T12:58:38.822Z,0.90
2018-08-24T12:59:38.142Z,0.80
2018-08-24T13:00:38.106Z,0.80
2018-08-24T13:01:38.084Z,0.60
2018-08-24T13:02:38.065Z,0.70
2018-08-24T13:03:38.038Z,0.70
2018-08-24T13:04:38.018Z,0.90
2018-08-24T13:05:37.989Z,0.90
2018-08-24T13:06:37.971Z,0.80
2018-08-24T13:07:37.942Z,0.70
2018-08-24T13:08:37.958Z,0.80
2018-08-24T13:09:37.898Z,1.00
2018-08-24T13:10:37.881Z,0.80
2018-08-24T13:11:37.855Z,0.60
2018-08-24T13:12:37.824Z,0.70
2018-08-24T13:13:37.800Z,0.80
2018-08-24T13:14:37.781Z,1.10
2018-08-24T13:15:37.760Z,1.30